Time;durP1;ratioP1;P1;durP2;ratioP2;P2;SDS_P1;SDS_P2;PMS_P1;PMS_P2;Temp;Humidity;BMP_temperature;BMP_pressure;BME280_temperature;BME280_humidity;BME280_pressure;Samples;Min_cycle;Max_cycle;Signal;HPM_P1;HPM_P2
2022/10/23 00:01:16;;;;;;;0.80;0.80;;;;;;;3.69;87.34;99346.59;4806196;29;20320;-85
2022/10/23 00:03:49;;;;;;;0.70;0.70;;;;;;;3.65;87.31;99340.00;4790877;29;20078;-85
2022/10/23 00:06:16;;;;;;;0.73;0.73;;;;;;;3.66;87.52;99347.00;4809731;29;20055;-85
2022/10/23 00:08:47;;;;;;;0.73;0.73;;;;;;;3.67;87.33;99340.63;4802790;29;20567;-88
2022/10/23 00:11:18;;;;;;;0.70;0.70;;;;;;;3.66;87.10;99338.97;4804134;29;20115;-87
2022/10/23 00:13:48;;;;;;;0.70;0.70;;;;;;;3.64;87.16;99333.00;4806200;29;20069;-88
2022/10/23 00:16:15;;;;;;;0.70;0.70;;;;;;;3.62;87.34;99324.34;4805836;29;20104;-85
2022/10/23 00:18:51;;;;;;;0.80;0.80;;;;;;;3.55;87.12;99318.16;4789328;29;20061;-86
2022/10/23 00:21:19;;;;;;;0.70;0.70;;;;;;;3.49;87.35;99327.72;4775282;29;20063;-86
2022/10/23 00:23:46;;;;;;;0.80;0.80;;;;;;;3.47;87.54;99316.44;4789409;29;20051;-86
2022/10/23 00:26:16;;;;;;;0.70;0.70;;;;;;;3.48;87.46;99315.41;4784336;29;20065;-86
2022/10/23 00:28:51;;;;;;;0.80;0.80;;;;;;;3.49;87.67;99317.06;4789614;29;20084;-87
2022/10/23 00:31:20;;;;;;;0.80;0.80;;;;;;;3.50;87.62;99307.22;4805279;29;20054;-86
2022/10/23 00:33:47;;;;;;;0.80;0.80;;;;;;;3.47;87.47;99301.25;4786989;29;20538;-86
2022/10/23 00:36:18;;;;;;;0.70;0.70;;;;;;;3.47;87.46;99301.25;4805025;29;20055;-85
2022/10/23 00:38:47;;;;;;;0.80;0.80;;;;;;;3.45;87.55;99294.47;4785932;29;20050;-87
2022/10/23 00:41:21;;;;;;;0.80;0.80;;;;;;;3.45;87.39;99295.28;4781464;29;20124;-90
2022/10/23 00:44:02;;;;;;;0.80;0.80;;;;;;;3.49;87.31;99293.03;4785855;29;20048;-91
2022/10/23 00:46:33;;;;;;;0.70;0.70;;;;;;;3.47;87.29;99279.91;4778871;29;20068;-91
2022/10/23 00:49:01;;;;;;;0.80;0.80;;;;;;;3.51;87.19;99285.66;4796326;29;20063;-85
2022/10/23 00:51:32;;;;;;;0.70;0.70;;;;;;;3.52;86.98;99273.16;4777937;29;20081;-88
2022/10/23 00:53:59;;;;;;;0.80;0.80;;;;;;;3.50;86.75;99273.34;4767613;29;20123;-85
2022/10/23 00:56:47;;;;;;;0.70;0.70;;;;;;;3.47;86.80;99269.22;4782069;29;20066;-85
2022/10/23 00:59:15;;;;;;;0.70;0.70;;;;;;;3.44;86.61;99263.44;4780287;29;20331;-85
2022/10/23 01:01:42;;;;;;;0.70;0.70;;;;;;;3.43;86.35;99259.13;4776609;29;20070;-85
2022/10/23 01:04:10;;;;;;;0.70;0.70;;;;;;;3.40;86.38;99265.69;4780180;29;20046;-85
2022/10/23 01:07:08;;;;;;;0.80;0.80;;;;;;;3.37;86.02;99260.72;4764357;29;20371;-84
2022/10/23 01:09:39;;;;;;;0.80;0.80;;;;;;;3.30;86.07;99265.16;4793867;29;20146;-85
2022/10/23 01:12:10;;;;;;;0.80;0.80;;;;;;;3.22;86.13;99265.31;4794150;29;20196;-84
2022/10/23 01:14:44;;;;;;;0.80;0.80;;;;;;;3.14;86.28;99263.59;4777490;30;20078;-84
2022/10/23 01:17:19;;;;;;;0.85;0.85;;;;;;;3.01;86.41;99248.28;4765808;29;20569;-84
2022/10/23 01:20:03;;;;;;;0.80;0.80;;;;;;;2.89;86.83;99249.78;4777361;29;20067;-83
2022/10/23 01:22:51;;;;;;;0.90;0.90;;;;;;;2.79;87.09;99249.28;4798329;29;20052;-85
2022/10/23 01:25:27;;;;;;;0.80;0.80;;;;;;;2.62;87.42;99237.19;4779055;29;20078;-86
2022/10/23 01:28:06;;;;;;;0.70;0.70;;;;;;;2.53;87.85;99242.63;4778511;29;20062;-86
2022/10/23 01:30:47;;;;;;;0.80;0.80;;;;;;;2.48;88.15;99241.50;4789886;29;20054;-86
2022/10/23 01:33:25;;;;;;;0.80;0.80;;;;;;;2.42;88.18;99243.09;4777974;29;20138;-87
2022/10/23 01:36:00;;;;;;;0.82;0.82;;;;;;;2.37;88.56;99238.31;4794902;29;20048;-84
2022/10/23 01:38:37;;;;;;;0.70;0.70;;;;;;;2.32;88.73;99237.22;4760299;29;20051;-85
2022/10/23 01:41:16;;;;;;;0.90;0.90;;;;;;;2.23;89.04;99235.66;4778393;29;20074;-84
2022/10/23 01:43:47;;;;;;;0.80;0.80;;;;;;;2.17;89.24;99235.38;4749637;29;20065;-84
2022/10/23 01:46:16;;;;;;;0.85;0.85;;;;;;;2.11;89.71;99230.81;4763827;29;20142;-84
2022/10/23 01:48:52;;;;;;;0.90;0.90;;;;;;;2.14;89.82;99232.28;4763109;29;20141;-86
2022/10/23 01:51:28;;;;;;;0.80;0.80;;;;;;;2.08;89.96;99236.53;4762672;29;20061;-84
2022/10/23 01:54:05;;;;;;;0.80;0.80;;;;;;;2.01;90.26;99240.91;4763451;29;20152;-86
2022/10/23 01:56:33;;;;;;;0.80;0.80;;;;;;;1.97;90.49;99234.28;4793757;29;20061;-85
2022/10/23 01:59:07;;;;;;;0.80;0.80;;;;;;;1.92;90.76;99236.69;4758570;30;20454;-86
2022/10/23 02:01:41;;;;;;;0.80;0.80;;;;;;;1.88;91.09;99225.59;4771749;30;20112;-85
2022/10/23 02:04:11;;;;;;;0.90;0.90;;;;;;;1.90;91.13;99233.38;4788432;29;20380;-86
2022/10/23 02:06:38;;;;;;;0.90;0.90;;;;;;;1.85;91.22;99228.63;4771904;29;20061;-86
2022/10/23 02:09:06;;;;;;;0.90;0.90;;;;;;;1.73;91.66;99225.56;4787671;29;20606;-85
2022/10/23 02:11:38;;;;;;;0.80;0.80;;;;;;;1.71;92.14;99230.25;4787856;29;20062;-86
2022/10/23 02:14:18;;;;;;;0.90;0.90;;;;;;;1.71;92.56;99224.91;4788380;29;20054;-86
2022/10/23 02:16:52;;;;;;;0.80;0.80;;;;;;;1.70;92.47;99217.13;4773174;29;20422;-85
2022/10/23 02:19:40;;;;;;;0.80;0.80;;;;;;;1.60;92.57;99220.06;4795187;29;20051;-86
2022/10/23 02:22:25;;;;;;;0.85;0.85;;;;;;;1.52;93.37;99217.47;4792234;29;20058;-85
2022/10/23 02:25:12;;;;;;;0.80;0.80;;;;;;;1.54;93.48;99210.13;4804585;29;20051;-85
2022/10/23 02:27:47;;;;;;;0.80;0.80;;;;;;;1.54;93.76;99204.81;4773138;29;20464;-86
2022/10/23 02:30:20;;;;;;;;;;;;;;;1.47;93.56;99212.69;4773882;29;20054;-85
2022/10/23 02:32:55;;;;;;;0.90;0.90;;;;;;;1.41;93.88;99207.25;4759255;29;20489;-85
2022/10/23 02:35:25;;;;;;;0.90;0.90;;;;;;;1.47;93.93;99211.88;4787558;29;20126;-85
2022/10/23 02:38:01;;;;;;;0.77;0.77;;;;;;;1.45;93.94;99208.56;4787343;29;20451;-86
2022/10/23 02:40:38;;;;;;;0.82;0.82;;;;;;;1.37;94.29;99211.28;4803867;29;20141;-86
2022/10/23 02:43:13;;;;;;;0.80;0.80;;;;;;;1.35;94.64;99200.03;4787370;29;20088;-86
2022/10/23 02:45:45;;;;;;;0.90;0.90;;;;;;;1.30;94.75;99209.34;4787645;29;20059;-86
2022/10/23 02:48:25;;;;;;;0.85;0.85;;;;;;;1.27;95.22;99203.59;4772645;29;20146;-85
2022/10/23 02:51:11;;;;;;;0.90;0.90;;;;;;;1.36;95.13;99210.47;4787740;29;20116;-85
2022/10/23 02:53:53;;;;;;;0.90;0.90;;;;;;;1.37;95.01;99205.97;4775342;29;20063;-85
2022/10/23 02:56:34;;;;;;;0.90;0.90;;;;;;;1.33;95.47;99200.19;4758060;29;20426;-88
2022/10/23 02:59:20;;;;;;;0.90;0.90;;;;;;;1.26;95.30;99205.38;4793026;29;20061;-87
2022/10/23 03:02:07;;;;;;;0.90;0.90;;;;;;;1.22;95.46;99209.44;4788006;29;20585;-85
2022/10/23 03:04:38;;;;;;;0.85;0.85;;;;;;;1.23;95.81;99203.09;4772758;29;20145;-85
2022/10/23 03:07:05;;;;;;;0.70;0.70;;;;;;;1.21;95.65;99198.97;4787251;29;20063;-87
2022/10/23 03:09:34;;;;;;;0.80;0.80;;;;;;;1.18;96.00;99197.50;4772864;29;20061;-87
2022/10/23 03:12:06;;;;;;;0.80;0.80;;;;;;;1.15;96.09;99194.38;4787352;29;20051;-85
2022/10/23 03:14:35;;;;;;;0.90;0.90;;;;;;;1.08;96.20;99187.09;4787570;29;20423;-85
2022/10/23 03:17:05;;;;;;;0.90;0.90;;;;;;;1.08;96.36;99187.09;4786951;29;20055;-87
2022/10/23 03:19:32;;;;;;;0.80;0.80;;;;;;;1.09;96.57;99182.63;4787139;29;20047;-86
2022/10/23 03:22:02;;;;;;;0.90;0.90;;;;;;;1.01;96.61;99170.25;4787019;29;20055;-86
2022/10/23 03:24:29;;;;;;;0.90;0.90;;;;;;;0.97;96.96;99179.56;4803045;29;20082;-86
2022/10/23 03:26:56;;;;;;;0.88;0.88;;;;;;;0.93;96.97;99174.78;4806104;29;20057;-86
2022/10/23 03:29:32;;;;;;;0.90;0.90;;;;;;;0.98;97.18;99175.88;4790722;29;20128;-85
2022/10/23 03:31:59;;;;;;;0.90;0.90;;;;;;;0.94;97.30;99168.44;4806368;29;20054;-87
2022/10/23 03:34:26;;;;;;;0.90;0.90;;;;;;;0.91;97.41;99174.94;4790038;29;20062;-87
2022/10/23 03:36:55;;;;;;;0.70;0.70;;;;;;;0.88;97.73;99166.50;4790785;29;20047;-86
2022/10/23 03:39:22;;;;;;;0.90;0.90;;;;;;;0.90;98.03;99173.31;4775305;29;20055;-86
2022/10/23 03:41:49;;;;;;;0.80;0.80;;;;;;;0.94;98.13;99168.44;4791072;29;20054;-86
2022/10/23 03:44:17;;;;;;;0.80;0.80;;;;;;;0.91;98.39;99174.94;4806724;29;20077;-87
2022/10/23 03:46:44;;;;;;;0.90;0.90;;;;;;;0.89;98.27;99165.50;4790265;29;20063;-87
2022/10/23 03:49:14;;;;;;;0.90;0.90;;;;;;;0.87;98.28;99163.03;4806030;29;20074;-86
2022/10/23 03:51:43;;;;;;;0.90;0.90;;;;;;;0.84;98.32;99163.41;4775001;29;20145;-86
2022/10/23 03:54:10;;;;;;;0.90;0.90;;;;;;;0.87;98.72;99149.75;4789589;29;20116;-87
2022/10/23 03:56:37;;;;;;;0.90;0.90;;;;;;;0.90;98.79;99148.56;4790094;29;20047;-87
2022/10/23 03:59:07;;;;;;;0.82;0.82;;;;;;;0.89;98.74;99150.41;4774893;29;20051;-87
2022/10/23 04:01:34;;;;;;;0.80;0.80;;;;;;;0.93;98.43;99148.19;4805909;29;20063;-86
2022/10/23 04:04:04;;;;;;;0.90;0.90;;;;;;;0.84;98.58;99142.97;4805434;29;20066;-89
2022/10/23 04:06:34;;;;;;;0.90;0.90;;;;;;;0.82;98.91;99150.28;4789108;29;20054;-87
2022/10/23 04:09:01;;;;;;;0.80;0.80;;;;;;;0.83;99.04;99151.91;4804841;29;20059;-86
2022/10/23 04:11:28;;;;;;;0.70;0.70;;;;;;;0.80;98.86;99149.63;4785766;29;20055;-88
2022/10/23 04:13:55;;;;;;;0.80;0.80;;;;;;;0.78;99.14;99148.97;4797901;29;20158;-87
2022/10/23 04:16:23;;;;;;;0.90;0.90;;;;;;;0.73;99.30;99143.38;4772724;30;20058;-89
2022/10/23 04:18:50;;;;;;;1.00;1.00;;;;;;;0.74;99.41;99142.38;4787426;29;20078;-87
2022/10/23 04:21:18;;;;;;;0.90;0.90;;;;;;;0.79;99.69;99149.81;4773037;30;20053;-85
2022/10/23 04:23:45;;;;;;;0.90;0.90;;;;;;;0.73;99.51;99135.41;4773496;30;20142;-86
2022/10/23 04:26:16;;;;;;;0.80;0.80;;;;;;;0.76;99.60;99139.53;4773148;30;20055;-87
2022/10/23 04:28:43;;;;;;;0.90;0.90;;;;;;;0.73;99.71;99139.88;4776321;29;20061;-86
2022/10/23 04:31:13;;;;;;;0.90;0.90;;;;;;;0.68;99.84;99132.44;4809368;29;20513;-85
2022/10/23 04:33:41;;;;;;;0.80;0.80;;;;;;;0.68;100.00;99132.44;4764610;29;20473;-85
2022/10/23 04:36:29;;;;;;;0.82;0.82;;;;;;;0.76;100.00;99142.19;4782751;29;20457;-88
2022/10/23 04:39:03;;;;;;;0.90;0.90;;;;;;;0.81;100.00;99137.16;4789460;29;20137;-85
2022/10/23 04:41:34;;;;;;;0.80;0.80;;;;;;;0.84;100.00;99127.03;4790024;29;20083;-86
2022/10/23 04:44:01;;;;;;;0.65;0.65;;;;;;;1.01;100.00;99127.72;4789859;29;20054;-86
2022/10/23 04:46:31;;;;;;;0.80;0.80;;;;;;;1.21;99.65;99128.00;4773333;29;20408;-85
2022/10/23 04:48:59;;;;;;;0.90;0.90;;;;;;;1.38;99.25;99127.84;4788793;29;20067;-84
2022/10/23 04:51:58;;;;;;;0.80;0.80;;;;;;;1.52;98.58;99129.72;4805579;29;20058;-86
2022/10/23 04:54:43;;;;;;;0.90;0.90;;;;;;;1.63;98.15;99123.91;4806009;29;20169;-87
2022/10/23 04:57:29;;;;;;;0.88;0.88;;;;;;;1.71;97.56;99123.00;4783923;29;20051;-89
2022/10/23 05:00:08;;;;;;;0.77;0.77;;;;;;;1.75;97.08;99124.28;4782343;29;20554;-89
2022/10/23 05:02:56;;;;;;;0.90;0.90;;;;;;;1.81;96.90;99126.19;4763090;30;20061;-87
2022/10/23 05:05:28;;;;;;;0.90;0.90;;;;;;;1.86;96.65;99129.13;4759665;30;20055;-91
2022/10/23 05:08:01;;;;;;;0.90;0.90;;;;;;;1.90;96.25;99130.41;4772634;30;20125;-90
2022/10/23 05:10:37;;;;;;;0.90;0.90;;;;;;;1.95;96.02;99124.53;4757234;30;20146;-90
2022/10/23 05:13:10;;;;;;;0.93;0.93;;;;;;;2.02;95.54;99129.94;4787242;30;20531;-86
2022/10/23 05:15:39;;;;;;;0.90;0.90;;;;;;;1.99;95.11;99109.81;4787304;30;20464;-88
2022/10/23 05:18:14;;;;;;;0.90;0.90;;;;;;;2.12;94.89;99117.97;4465211;29;10000058;-86
2022/10/23 05:20:44;;;;;;;0.82;0.82;;;;;;;2.13;94.81;99119.63;4784440;29;20051;-86
2022/10/23 05:23:13;;;;;;;0.80;0.80;;;;;;;2.13;94.47;99122.28;4784768;29;20239;-85
2022/10/23 05:25:50;;;;;;;0.90;0.90;;;;;;;2.08;94.55;99115.88;4784636;29;20490;-86
2022/10/23 05:28:17;;;;;;;0.80;0.80;;;;;;;2.22;94.33;99115.00;4784032;29;20078;-84
2022/10/23 05:30:45;;;;;;;0.82;0.82;;;;;;;2.24;93.75;99110.31;4768474;29;20065;-85
2022/10/23 05:33:16;;;;;;;1.00;1.00;;;;;;;2.30;93.36;99101.56;4798131;29;20062;-85
2022/10/23 05:35:44;;;;;;;0.80;0.80;;;;;;;2.38;93.24;99104.13;4782009;29;20054;-85
2022/10/23 05:38:13;;;;;;;0.90;0.90;;;;;;;2.40;92.92;99103.94;4763114;29;20043;-87
2022/10/23 05:40:41;;;;;;;0.90;0.90;;;;;;;2.39;92.62;99094.31;4775741;29;20059;-83
2022/10/23 05:43:13;;;;;;;0.88;0.88;;;;;;;2.47;92.23;99090.69;4788064;29;20074;-85
2022/10/23 05:46:05;;;;;;;0.80;0.80;;;;;;;2.56;91.97;99094.88;4773405;29;20067;-85
2022/10/23 05:48:51;;;;;;;0.90;0.90;;;;;;;2.60;91.87;99096.13;4793233;29;20062;-84
2022/10/23 05:51:38;;;;;;;0.90;0.90;;;;;;;2.64;91.54;99091.28;4776375;29;20112;-85
2022/10/23 05:54:21;;;;;;;0.80;0.80;;;;;;;2.70;91.52;99098.47;4774849;29;20123;-83
2022/10/23 05:57:19;;;;;;;0.90;0.90;;;;;;;2.77;91.38;99094.03;4782529;29;20351;-84
2022/10/23 05:59:49;;;;;;;0.80;0.80;;;;;;;2.84;91.20;99092.25;4764323;29;20061;-83
2022/10/23 06:02:43;;;;;;;0.90;0.90;;;;;;;2.94;91.00;99087.41;4791312;29;20083;-84
2022/10/23 06:05:35;;;;;;;0.82;0.82;;;;;;;3.02;90.50;99095.28;4773179;29;20217;-85
2022/10/23 06:08:23;;;;;;;0.82;0.82;;;;;;;3.06;90.46;99089.53;4782825;29;20718;-92
2022/10/23 06:10:50;;;;;;;0.88;0.88;;;;;;;3.03;90.30;99080.09;4785938;29;20134;-88
2022/10/23 06:13:19;;;;;;;0.80;0.80;;;;;;;3.09;90.02;99083.81;4768901;29;20082;-87
2022/10/23 06:15:46;;;;;;;0.90;0.90;;;;;;;3.15;89.53;99078.53;4796171;29;20061;-86
2022/10/23 06:18:19;;;;;;;0.80;0.80;;;;;;;3.18;89.00;99066.66;4756517;29;20137;-87
2022/10/23 06:21:00;;;;;;;0.73;0.73;;;;;;;3.15;89.05;99059.06;4782686;29;20054;-89
2022/10/23 06:23:33;;;;;;;0.90;0.90;;;;;;;3.23;88.77;99064.22;4785867;29;20504;-85
2022/10/23 06:26:03;;;;;;;0.90;0.90;;;;;;;3.26;88.43;99061.16;4782365;29;20072;-85
2022/10/23 06:28:41;;;;;;;0.80;0.80;;;;;;;3.35;88.37;99059.19;4766862;30;20058;-85
2022/10/23 06:31:12;;;;;;;0.70;0.70;;;;;;;3.33;87.79;99053.22;4764217;29;20051;-86
2022/10/23 06:33:41;;;;;;;0.90;0.90;;;;;;;3.31;87.80;99058.72;4784879;29;20663;-85
2022/10/23 06:36:09;;;;;;;0.88;0.88;;;;;;;3.37;88.02;99063.31;4797618;29;20065;-86
2022/10/23 06:38:41;;;;;;;0.90;0.90;;;;;;;3.45;87.70;99062.31;4784817;29;20139;-86
2022/10/23 06:41:16;;;;;;;0.80;0.80;;;;;;;3.50;87.63;99053.72;4769183;29;20093;-85
2022/10/23 06:43:49;;;;;;;0.90;0.90;;;;;;;3.45;87.34;99048.97;4766740;29;20051;-84
2022/10/23 06:46:25;;;;;;;0.80;0.80;;;;;;;3.50;87.33;99043.06;4730198;29;20069;-84
2022/10/23 06:49:22;;;;;;;0.80;0.80;;;;;;;3.46;87.25;99054.09;4765200;29;20063;-85
2022/10/23 06:51:49;;;;;;;0.90;0.90;;;;;;;3.48;87.43;99057.41;4801866;29;20056;-84
2022/10/23 06:54:20;;;;;;;0.90;0.90;;;;;;;3.47;87.71;99049.59;4786815;29;20539;-84
2022/10/23 06:56:50;;;;;;;0.80;0.80;;;;;;;3.46;87.18;99043.44;4802694;29;20459;-85
2022/10/23 06:59:21;;;;;;;0.90;0.90;;;;;;;3.44;87.06;99040.16;4781425;29;20071;-82
2022/10/23 07:01:51;;;;;;;0.80;0.80;;;;;;;3.41;87.04;99023.69;4770351;29;20059;-83
2022/10/23 07:04:18;;;;;;;0.88;0.88;;;;;;;3.44;87.01;99029.47;4783566;29;20073;-84
2022/10/23 07:06:47;;;;;;;0.80;0.80;;;;;;;3.50;87.22;99030.53;4803639;29;20063;-86
2022/10/23 07:09:14;;;;;;;0.80;0.80;;;;;;;3.47;87.23;99026.41;4770764;29;20087;-84
2022/10/23 07:12:10;;;;;;;0.88;0.88;;;;;;;3.54;87.12;99021.09;4804239;29;20047;-83
2022/10/23 07:14:45;;;;;;;;;;;;;;;3.54;87.06;99009.59;4776532;29;20090;-84
2022/10/23 07:17:14;;;;;;;0.90;0.90;;;;;;;3.54;87.05;99007.75;4787595;29;20461;-86
2022/10/23 07:19:41;;;;;;;0.82;0.82;;;;;;;3.58;87.13;99008.19;4778908;29;20081;-85
2022/10/23 07:22:11;;;;;;;0.90;0.90;;;;;;;3.61;86.96;99008.59;4768921;29;20113;-86
2022/10/23 07:24:46;;;;;;;0.90;0.90;;;;;;;3.63;87.16;99000.41;4775306;29;20055;-84
2022/10/23 07:27:24;;;;;;;0.82;0.82;;;;;;;3.59;87.17;98999.97;4790747;29;20054;-85
2022/10/23 07:29:57;;;;;;;0.85;0.85;;;;;;;3.63;87.19;98995.88;4788095;29;20066;-86
2022/10/23 07:32:29;;;;;;;0.80;0.80;;;;;;;3.64;87.38;98991.38;4758877;30;20534;-84
2022/10/23 07:35:12;;;;;;;0.90;0.90;;;;;;;3.79;87.24;98999.22;4781773;29;20142;-86
2022/10/23 07:37:48;;;;;;;0.80;0.80;;;;;;;3.86;87.23;99000.88;4785118;29;20400;-84
2022/10/23 07:40:17;;;;;;;0.90;0.90;;;;;;;3.85;86.52;98987.75;4772801;29;20164;-86
2022/10/23 07:42:44;;;;;;;0.90;0.90;;;;;;;3.94;86.60;98994.53;4784548;29;20054;-82
2022/10/23 07:45:14;;;;;;;0.80;0.80;;;;;;;4.06;86.37;98984.91;4784828;29;20066;-86
2022/10/23 07:47:49;;;;;;;0.80;0.80;;;;;;;4.21;86.10;98992.75;4788036;29;20109;-81
2022/10/23 07:50:20;;;;;;;0.82;0.82;;;;;;;4.30;85.91;98996.88;4787841;29;20145;-83
2022/10/23 07:52:50;;;;;;;0.80;0.80;;;;;;;4.34;85.46;98997.28;4765269;29;20060;-83
2022/10/23 07:55:28;;;;;;;0.80;0.80;;;;;;;4.31;85.32;98992.34;4782953;29;20051;-82
2022/10/23 07:58:07;;;;;;;0.70;0.70;;;;;;;4.30;85.20;98991.53;4779712;29;20745;-84
2022/10/23 08:00:44;;;;;;;0.80;0.80;;;;;;;4.29;85.50;99003.22;4787898;29;20059;-85
2022/10/23 08:03:29;;;;;;;0.77;0.77;;;;;;;4.20;85.47;99007.13;4768988;29;20518;-83
2022/10/23 08:06:00;;;;;;;0.70;0.70;;;;;;;4.11;85.64;99003.00;4781770;29;20108;-83
2022/10/23 08:08:30;;;;;;;0.82;0.82;;;;;;;4.07;85.92;99007.09;4771005;29;20384;-85
2022/10/23 08:11:01;;;;;;;0.80;0.80;;;;;;;4.10;86.26;98988.84;4783649;29;20051;-84
2022/10/23 08:13:38;;;;;;;0.70;0.70;;;;;;;4.01;86.36;98995.38;4774926;29;20057;-86
2022/10/23 08:16:06;;;;;;;0.80;0.80;;;;;;;3.95;86.74;98998.03;4789576;29;20058;-86
2022/10/23 08:19:06;;;;;;;0.80;0.80;;;;;;;4.00;86.90;98991.06;4774333;29;20066;-84
2022/10/23 08:21:38;;;;;;;0.90;0.90;;;;;;;4.10;87.14;98996.84;4768766;30;20059;-87
2022/10/23 08:24:12;;;;;;;0.80;0.80;;;;;;;4.16;86.99;98989.03;4788065;29;20614;-86
2022/10/23 08:26:44;;;;;;;0.80;0.80;;;;;;;4.24;87.23;98988.84;4786590;29;20691;-83
2022/10/23 08:29:12;;;;;;;0.80;0.80;;;;;;;4.20;87.14;98991.09;4788227;29;20051;-84
2022/10/23 08:31:43;;;;;;;0.80;0.80;;;;;;;4.18;87.69;98993.16;4773882;29;20050;-82
2022/10/23 08:34:36;;;;;;;0.70;0.70;;;;;;;4.16;87.32;98987.19;4774612;29;20058;-83
2022/10/23 08:37:04;;;;;;;0.80;0.80;;;;;;;4.18;87.32;98995.84;4777827;30;20317;-83
2022/10/23 08:39:33;;;;;;;0.80;0.80;;;;;;;4.20;87.37;98984.94;4783274;29;20047;-83
2022/10/23 08:42:24;;;;;;;0.90;0.90;;;;;;;4.27;87.36;98981.22;4802227;29;20063;-85
2022/10/23 08:45:19;;;;;;;0.80;0.80;;;;;;;4.38;87.10;98984.31;4786347;29;20387;-83
2022/10/23 08:47:53;;;;;;;0.80;0.80;;;;;;;4.33;86.96;98968.94;4665465;30;20408;-84
2022/10/23 08:50:35;;;;;;;0.70;0.70;;;;;;;4.38;87.18;98965.63;4677247;30;20070;-82
2022/10/23 08:53:12;;;;;;;0.80;0.80;;;;;;;4.39;87.10;98951.25;4695128;30;20097;-87
2022/10/23 08:55:46;;;;;;;0.80;0.80;;;;;;;4.38;87.17;98954.94;4678386;30;20057;-82
2022/10/23 08:58:33;;;;;;;0.70;0.70;;;;;;;4.31;87.46;98966.44;4679658;30;20065;-82
2022/10/23 09:01:30;;;;;;;0.70;0.70;;;;;;;4.30;87.63;98956.81;4690364;30;20064;-83
2022/10/23 09:04:14;;;;;;;0.80;0.80;;;;;;;4.38;87.75;98954.94;4694689;30;20175;-84
2022/10/23 09:07:07;;;;;;;0.80;0.80;;;;;;;4.33;87.74;98935.00;4684057;30;20534;-83
2022/10/23 09:09:47;;;;;;;0.80;0.80;;;;;;;4.47;87.80;98954.53;4694336;30;20316;-82
2022/10/23 09:12:19;;;;;;;0.80;0.80;;;;;;;4.39;87.93;98925.34;4694145;30;20096;-83
2022/10/23 09:15:00;;;;;;;0.80;0.80;;;;;;;4.39;88.30;98941.38;4687736;30;20161;-84
2022/10/23 09:17:37;;;;;;;0.75;0.75;;;;;;;4.43;88.39;98931.94;4689394;30;20062;-83
2022/10/23 09:20:05;;;;;;;;;;;;;;;4.42;88.61;98950.84;4699689;30;20077;-82
2022/10/23 09:22:32;;;;;;;0.70;0.70;;;;;;;4.36;88.73;98930.28;4701144;30;19938;-82
2022/10/23 09:24:59;;;;;;;0.80;0.80;;;;;;;4.36;89.11;98936.44;4749490;29;20051;-82
2022/10/23 09:27:26;;;;;;;0.80;0.80;;;;;;;4.38;89.30;98936.22;4787100;29;20111;-82
2022/10/23 09:29:54;;;;;;;0.70;0.70;;;;;;;4.45;89.42;98929.03;4804785;29;20146;-84
2022/10/23 09:32:37;;;;;;;0.75;0.75;;;;;;;4.50;89.55;98930.06;4804409;29;20073;-84
2022/10/23 09:35:05;;;;;;;0.70;0.70;;;;;;;4.46;89.39;98928.03;4796303;29;20146;-84
2022/10/23 09:37:34;;;;;;;0.80;0.80;;;;;;;4.42;89.55;98924.94;4803990;29;20621;-84
2022/10/23 09:40:15;;;;;;;0.70;0.70;;;;;;;4.48;89.87;98925.94;4803797;29;20108;-82
2022/10/23 09:43:26;;;;;;;0.80;0.80;;;;;;;4.46;89.81;98918.16;4783915;30;20424;-82
2022/10/23 09:46:09;;;;;;;0.80;0.80;;;;;;;4.43;90.00;98912.38;4779828;29;20065;-84
2022/10/23 09:48:42;;;;;;;0.80;0.80;;;;;;;4.50;90.17;98915.88;4770287;30;20061;-83
2022/10/23 09:51:18;;;;;;;0.90;0.90;;;;;;;4.54;90.26;98914.44;4770013;30;20496;-83
2022/10/23 09:53:57;;;;;;;0.80;0.80;;;;;;;4.57;90.06;98920.19;4793898;29;20487;-82
2022/10/23 09:56:31;;;;;;;0.70;0.70;;;;;;;4.50;90.11;98915.88;4791419;29;20090;-82
2022/10/23 09:59:09;;;;;;;0.77;0.77;;;;;;;4.42;90.22;98911.56;4795323;29;20083;-83
2022/10/23 10:01:46;;;;;;;0.80;0.80;;;;;;;4.41;90.43;98911.78;4788318;29;20146;-82
2022/10/23 10:04:37;;;;;;;0.70;0.70;;;;;;;4.38;90.73;98910.34;4786043;30;20062;-81
2022/10/23 10:07:26;;;;;;;0.80;0.80;;;;;;;4.33;90.90;98899.47;4785697;29;20442;-82
2022/10/23 10:09:54;;;;;;;0.80;0.80;;;;;;;4.33;91.05;98902.94;4778677;29;20051;-84
2022/10/23 10:13:02;;;;;;;0.73;0.73;;;;;;;4.34;91.31;98899.25;4803624;29;20065;-84
2022/10/23 10:15:35;;;;;;;0.80;0.80;;;;;;;4.40;91.40;98907.47;4761005;29;20061;-84
2022/10/23 10:18:27;;;;;;;0.80;0.80;;;;;;;4.42;91.43;98890.19;4785291;29;20085;-82
2022/10/23 10:21:20;;;;;;;0.70;0.70;;;;;;;4.48;91.43;98891.19;4746697;29;20047;-84
2022/10/23 10:24:10;;;;;;;0.80;0.80;;;;;;;4.53;91.26;98881.56;4453564;29;10000341;-82
2022/10/23 10:27:18;;;;;;;0.90;0.90;;;;;;;4.57;91.03;98874.75;4775842;29;20074;-82
2022/10/23 10:30:09;;;;;;;0.70;0.70;;;;;;;4.64;91.04;98880.09;4768747;29;20667;-81
2022/10/23 10:32:44;;;;;;;0.70;0.70;;;;;;;4.61;90.71;98877.84;4782970;29;20491;-82
2022/10/23 10:35:23;;;;;;;0.75;0.75;;;;;;;4.55;90.84;98881.31;4768467;29;20061;-83
2022/10/23 10:38:14;;;;;;;0.80;0.80;;;;;;;4.49;91.05;98879.50;4793591;29;20062;-81
2022/10/23 10:40:57;;;;;;;0.80;0.80;;;;;;;4.49;91.28;98874.97;4791687;29;20435;-83
2022/10/23 10:43:48;;;;;;;0.80;0.80;;;;;;;4.50;91.42;98870.44;4779348;29;20070;-81
2022/10/23 10:46:35;;;;;;;0.88;0.88;;;;;;;4.47;91.42;98870.84;4796955;29;20069;-82
2022/10/23 10:49:11;;;;;;;0.80;0.80;;;;;;;4.44;91.74;98868.63;4797319;29;20065;-83
2022/10/23 10:52:27;;;;;;;0.70;0.70;;;;;;;4.44;91.72;98872.09;4782594;29;20059;-82
2022/10/23 10:54:58;;;;;;;0.80;0.80;;;;;;;4.42;91.98;98857.31;4799463;29;20059;-82
2022/10/23 10:57:34;;;;;;;0.80;0.80;;;;;;;4.45;92.18;98854.22;4794282;29;20057;-81
2022/10/23 11:00:15;;;;;;;0.73;0.73;;;;;;;4.41;92.49;98848.47;4777496;29;20441;-81
2022/10/23 11:02:48;;;;;;;0.70;0.70;;;;;;;4.41;92.40;98840.47;4795400;29;20058;-83
2022/10/23 11:05:34;;;;;;;0.88;0.88;;;;;;;4.31;92.67;98832.06;4780098;29;20452;-81
2022/10/23 11:08:21;;;;;;;0.77;0.77;;;;;;;4.37;93.05;98835.72;4777091;29;20128;-82
2022/10/23 11:10:52;;;;;;;0.70;0.70;;;;;;;4.41;93.43;98828.94;4755366;29;20047;-80
2022/10/23 11:13:36;;;;;;;0.80;0.80;;;;;;;4.38;93.79;98824.84;4782106;29;20579;-80
2022/10/23 11:16:25;;;;;;;0.80;0.80;;;;;;;4.39;93.93;98817.66;4783406;29;20648;-82
2022/10/23 11:19:05;;;;;;;0.70;0.70;;;;;;;4.34;94.24;98813.75;4783310;29;20101;-81
2022/10/23 11:21:43;;;;;;;0.70;0.70;;;;;;;4.37;94.66;98819.69;4794132;29;20430;-82
2022/10/23 11:24:52;;;;;;;0.80;0.80;;;;;;;4.43;94.93;98817.03;4786220;29;20067;-84
2022/10/23 11:27:54;;;;;;;0.80;0.80;;;;;;;4.45;95.09;98808.78;4779451;29;20059;-82
2022/10/23 11:31:03;;;;;;;0.80;0.80;;;;;;;4.41;95.00;98807.56;4786509;29;20438;-82
2022/10/23 11:33:54;;;;;;;0.80;0.80;;;;;;;4.39;95.11;98801.63;4485413;24;10001881;-82
2022/10/23 11:36:41;;;;;;;0.80;0.80;;;;;;;4.46;95.37;98797.06;4736267;30;20067;-83
2022/10/23 11:39:20;;;;;;;0.77;0.77;;;;;;;4.41;95.48;98789.69;4711728;30;20051;-81
2022/10/23 11:42:50;;;;;;;0.70;0.70;;;;;;;4.44;95.35;98799.94;4722228;30;20056;-82
2022/10/23 11:46:21;;;;;;;0.70;0.70;;;;;;;4.42;95.61;98799.34;4597219;31;20063;-82
2022/10/23 11:49:41;;;;;;;0.80;0.80;;;;;;;4.44;95.37;98799.94;4595153;31;20082;-82
2022/10/23 11:57:57;;;;;;;0.80;0.80;;;;;;;4.20;95.58;98777.38;4497827;31;20063;-80
2022/10/23 12:01:00;;;;;;;0.70;0.70;;;;;;;4.25;96.18;98785.59;4506106;31;20082;-82
2022/10/23 12:03:58;;;;;;;0.70;0.70;;;;;;;4.31;96.30;98774.09;4497159;31;20065;-81
2022/10/23 12:06:54;;;;;;;0.80;0.80;;;;;;;4.33;96.37;98780.06;4520566;31;20074;-82
2022/10/23 12:09:21;;;;;;;0.83;0.83;;;;;;;4.31;96.65;98778.63;4510843;31;20136;-82
2022/10/23 12:12:21;;;;;;;0.80;0.80;;;;;;;4.33;96.94;98772.03;4497796;31;20055;-82
2022/10/23 12:15:19;;;;;;;0.70;0.70;;;;;;;4.38;97.00;98763.41;4507934;31;20094;-82
2022/10/23 12:17:47;;;;;;;0.80;0.80;;;;;;;4.39;96.92;98762.34;4565781;31;20060;-82
2022/10/23 12:20:55;;;;;;;0.70;0.70;;;;;;;4.43;96.92;98760.06;4567856;31;20065;-81
2022/10/23 12:23:50;;;;;;;0.70;0.70;;;;;;;4.39;97.47;98756.19;4612089;30;20109;-82
2022/10/23 12:26:33;;;;;;;0.90;0.90;;;;;;;4.42;97.49;98750.41;4340468;30;10000862;-81
2022/10/23 12:29:39;;;;;;;0.75;0.75;;;;;;;4.44;97.49;98748.38;4685012;30;20382;-82
2022/10/23 12:32:18;;;;;;;;;;;;;;;4.41;97.59;98744.25;4696926;30;20061;-82
2022/10/23 12:34:58;;;;;;;0.90;0.90;;;;;;;4.38;97.61;98751.84;4727231;30;20375;-82